Time;durP1;ratioP1;P1;durP2;ratioP2;P2;SDS_P1;SDS_P2;PMS_P1;PMS_P2;Temp;Humidity;BMP_temperature;BMP_pressure;BME280_temperature;BME280_humidity;BME280_pressure;Samples;Min_cycle;Max_cycle;Signal;HPM_P1;HPM_P2
2021/04/28 00:00:06;;;;;;;4.67;3.77;;;;;;;5.95;45.76;96094.34;1730553;80;22503;-77
2021/04/28 00:02:35;;;;;;;4.62;3.85;;;;;;;5.98;45.61;96099.18;1710998;82;21214;-77
2021/04/28 00:05:07;;;;;;;6.03;4.25;;;;;;;6.03;45.13;96094.86;1720136;82;21102;-78
2021/04/28 00:07:33;;;;;;;5.15;3.75;;;;;;;6.04;46.22;96095.98;1725994;82;21118;-77
2021/04/28 00:09:59;;;;;;;8.88;4.67;;;;;;;6.02;44.94;96088.89;1691236;82;21139;-77
2021/04/28 00:12:26;;;;;;;4.62;3.72;;;;;;;6.07;45.60;96089.69;1717090;82;21106;-78
2021/04/28 00:14:52;;;;;;;5.47;4.25;;;;;;;6.06;45.18;96083.73;1709690;82;21137;-82
2021/04/28 00:17:18;;;;;;;5.62;4.00;;;;;;;6.08;45.39;96086.95;1758736;80;21132;-81
2021/04/28 00:19:44;;;;;;;6.62;4.33;;;;;;;6.06;45.89;96090.17;1759201;80;21092;-81
2021/04/28 00:22:11;;;;;;;5.00;3.80;;;;;;;6.06;45.46;96081.63;1763851;80;21303;-79
2021/04/28 00:24:37;;;;;;;6.72;4.05;;;;;;;6.03;45.56;96081.47;1766940;80;21283;-79
2021/04/28 00:27:03;;;;;;;6.35;4.33;;;;;;;6.01;45.28;96082.90;1762978;80;21094;-79
2021/04/28 00:29:29;;;;;;;6.87;3.95;;;;;;;6.01;45.37;96080.31;1765030;80;21439;-79
2021/04/28 00:31:59;;;;;;;4.85;3.55;;;;;;;6.00;45.50;96083.86;1735706;80;22048;-79
2021/04/28 00:34:25;;;;;;;7.75;4.28;;;;;;;6.05;45.04;96082.12;1763620;80;21143;-79
2021/04/28 00:36:51;;;;;;;6.22;4.17;;;;;;;6.09;45.20;96083.89;1758162;80;21329;-79
2021/04/28 00:39:17;;;;;;;5.58;3.58;;;;;;;6.08;45.23;96080.98;1758172;80;21112;-79
2021/04/28 00:41:43;;;;;;;6.17;4.10;;;;;;;6.00;45.13;96076.61;1752094;80;21144;-79
2021/04/28 00:44:10;;;;;;;4.62;3.67;;;;;;;6.00;45.13;96076.61;1760761;80;21151;-79
2021/04/28 00:46:37;;;;;;;4.53;3.45;;;;;;;6.09;44.70;96078.73;1758835;80;21099;-79
2021/04/28 00:49:03;;;;;;;9.33;5.83;;;;;;;6.15;44.02;96081.45;1765091;80;21297;-79
2021/04/28 00:51:29;;;;;;;5.50;4.08;;;;;;;6.21;44.95;96082.60;1759723;80;21096;-79
2021/04/28 00:53:55;;;;;;;3.65;3.33;;;;;;;6.20;44.93;96084.37;1764390;80;21118;-77
2021/04/28 00:56:21;;;;;;;7.05;3.50;;;;;;;6.22;44.59;96082.92;1759484;80;21078;-78
2021/04/28 00:58:47;;;;;;;5.72;4.05;;;;;;;6.22;44.76;96094.53;1770525;80;21083;-77
2021/04/28 01:01:13;;;;;;;5.37;4.20;;;;;;;6.21;44.69;96089.86;1765607;80;21130;-78
2021/04/28 01:03:39;;;;;;;5.58;3.90;;;;;;;6.20;44.57;96086.95;1776040;79;21230;-78
2021/04/28 01:06:06;;;;;;;5.25;3.70;;;;;;;6.23;44.04;96088.41;1770258;79;21100;-78
2021/04/28 01:08:33;;;;;;;4.42;3.33;;;;;;;6.27;44.18;96091.78;1770313;79;21100;-78
2021/04/28 01:11:00;;;;;;;4.55;3.50;;;;;;;6.31;44.30;96094.84;1745183;80;21146;-78
2021/04/28 01:13:26;;;;;;;5.58;3.60;;;;;;;6.33;43.89;96091.61;1774652;79;21135;-78
2021/04/28 01:15:53;;;;;;;5.80;4.20;;;;;;;6.37;44.02;96094.70;1771507;79;21119;-78
2021/04/28 01:18:19;;;;;;;7.42;4.03;;;;;;;6.40;43.85;96095.17;1770933;79;21134;-78
2021/04/28 01:20:46;;;;;;;5.35;3.25;;;;;;;6.41;43.70;96094.20;1773314;79;21272;-78
2021/04/28 01:23:13;;;;;;;4.12;3.67;;;;;;;6.45;43.50;96093.38;1774816;79;21119;-78
2021/04/28 01:25:39;;;;;;;4.55;3.62;;;;;;;6.49;43.76;96086.44;1771160;79;21123;-78
2021/04/28 01:28:21;;;;;;;4.22;3.60;;;;;;;6.49;43.61;96103.70;1773568;79;21112;-78
2021/04/28 01:30:57;;;;;;;2.70;2.45;;;;;;;6.49;43.76;96096.76;1770274;79;21138;-78
2021/04/28 01:33:30;;;;;;;5.60;3.58;;;;;;;6.48;43.50;96099.02;1704478;82;21111;-78
2021/04/28 01:35:57;;;;;;;6.17;3.52;;;;;;;6.46;43.66;96099.67;1747417;81;21222;-78
2021/04/28 01:38:25;;;;;;;4.47;3.83;;;;;;;6.43;43.68;96097.42;1723619;81;21306;-77
2021/04/28 01:40:52;;;;;;;4.55;3.22;;;;;;;6.42;44.28;96100.97;1775289;79;21098;-77
2021/04/28 01:43:18;;;;;;;4.50;3.33;;;;;;;6.42;43.69;96089.36;1726273;80;22084;-78
2021/04/28 01:45:53;;;;;;;4.17;3.22;;;;;;;6.43;43.52;96088.88;1703790;82;21552;-77
2021/04/28 01:48:19;;;;;;;5.03;3.30;;;;;;;6.49;43.36;96082.56;1777496;79;21120;-77
2021/04/28 01:50:47;;;;;;;5.08;3.55;;;;;;;6.49;43.26;96091.59;1779902;79;21151;-77
2021/04/28 01:53:15;;;;;;;6.05;3.33;;;;;;;6.48;43.75;96083.53;1706688;82;21170;-78
2021/04/28 01:55:42;;;;;;;4.35;3.17;;;;;;;6.46;43.21;96073.86;1740942;80;21127;-78
2021/04/28 01:58:08;;;;;;;5.78;3.37;;;;;;;6.48;43.13;96077.08;1776599;79;21118;-78
2021/04/28 02:00:34;;;;;;;4.67;3.35;;;;;;;6.49;43.55;96076.59;1770718;79;21066;-77
2021/04/28 02:03:00;;;;;;;5.25;3.15;;;;;;;6.48;43.32;96077.56;1773425;79;21048;-77
2021/04/28 02:05:26;;;;;;;5.10;3.00;;;;;;;6.41;43.85;96068.39;1770453;80;21127;-79
2021/04/28 02:07:52;;;;;;;5.08;3.25;;;;;;;6.39;43.94;96070.33;1770858;79;21246;-79
2021/04/28 02:10:18;;;;;;;5.42;3.17;;;;;;;6.34;44.32;96079.03;1771846;79;21127;-81
2021/04/28 02:12:47;;;;;;;3.12;2.67;;;;;;;6.27;44.13;96072.43;1743452;80;21144;-79
2021/04/28 02:15:15;;;;;;;4.80;2.87;;;;;;;6.25;43.92;96074.38;1741610;79;21127;-78
2021/04/28 02:17:41;;;;;;;4.10;3.20;;;;;;;6.25;44.09;96070.50;1771437;79;21112;-77
2021/04/28 02:20:09;;;;;;;5.30;3.27;;;;;;;6.24;43.94;96065.02;1770569;79;21084;-78
2021/04/28 02:22:37;;;;;;;4.97;3.65;;;;;;;6.25;44.83;96065.83;1773402;79;21130;-78
2021/04/28 02:25:05;;;;;;;4.22;2.75;;;;;;;6.22;44.04;96066.16;1773994;79;21103;-78
2021/04/28 02:27:32;;;;;;;4.75;3.25;;;;;;;6.23;43.91;96057.45;1772047;79;21123;-82
2021/04/28 02:29:58;;;;;;;3.87;2.87;;;;;;;6.21;43.88;96061.97;1770009;79;21245;-81
2021/04/28 02:32:24;;;;;;;3.87;3.22;;;;;;;6.21;44.44;96064.55;1766957;79;21261;-81
2021/04/28 02:34:50;;;;;;;4.85;3.05;;;;;;;6.17;44.61;96063.23;1769548;79;21116;-82
2021/04/28 02:37:18;;;;;;;5.97;3.50;;;;;;;6.12;44.74;96057.77;1777790;79;21122;-81
2021/04/28 02:39:47;;;;;;;3.95;2.58;;;;;;;6.11;44.46;96066.47;1746409;79;21271;-81
2021/04/28 02:42:15;;;;;;;6.23;3.53;;;;;;;6.08;44.51;96058.58;1775190;79;22158;-82
2021/04/28 02:44:41;;;;;;;5.15;3.00;;;;;;;6.09;44.86;96057.61;1769592;79;21598;-81
2021/04/28 02:47:07;;;;;;;5.78;3.35;;;;;;;6.15;44.96;96065.98;1772557;79;21269;-81
2021/04/28 02:49:33;;;;;;;6.83;3.17;;;;;;;6.12;45.11;96055.98;1769364;79;21096;-81
2021/04/28 02:51:59;;;;;;;4.53;3.12;;;;;;;6.07;44.93;96060.84;1774506;79;21275;-81
2021/04/28 02:54:26;;;;;;;5.10;3.25;;;;;;;6.08;45.21;96060.35;1746147;80;21444;-80
2021/04/28 02:56:52;;;;;;;4.62;3.27;;;;;;;6.04;44.64;96056.01;1683042;83;21294;-79
2021/04/28 02:59:19;;;;;;;5.58;2.95;;;;;;;6.06;44.28;96057.94;1770127;79;21088;-79
2021/04/28 03:01:49;;;;;;;4.83;3.50;;;;;;;6.15;44.14;96050.98;1767187;79;21497;-79
2021/04/28 03:04:16;;;;;;;3.25;2.95;;;;;;;6.16;44.47;96053.40;1777130;79;22492;-79
2021/04/28 03:06:42;;;;;;;4.33;3.50;;;;;;;6.14;44.43;96048.89;1778499;79;21106;-79
2021/04/28 03:09:08;;;;;;;3.75;3.10;;;;;;;6.14;44.60;96055.83;1749777;80;21112;-79
2021/04/28 03:11:36;;;;;;;3.62;2.92;;;;;;;6.13;43.85;96055.50;1750628;80;21118;-79
2021/04/28 03:14:03;;;;;;;3.83;2.87;;;;;;;6.18;44.00;96055.36;1688120;83;21122;-78
2021/04/28 03:16:29;;;;;;;5.42;3.27;;;;;;;6.22;43.65;96055.84;1781947;79;21110;-78
2021/04/28 03:18:55;;;;;;;6.03;3.47;;;;;;;6.22;44.25;96046.80;1714032;82;21253;-78
2021/04/28 03:21:22;;;;;;;5.15;3.50;;;;;;;6.20;45.43;96059.06;1710848;82;21128;-78
2021/04/28 03:23:48;;;;;;;5.45;3.00;;;;;;;6.08;45.67;96052.61;1780594;79;21110;-78
2021/04/28 03:26:14;;;;;;;4.62;3.20;;;;;;;6.05;44.85;96056.81;1726045;79;21411;-81
2021/04/28 03:28:40;;;;;;;4.40;3.00;;;;;;;6.01;45.14;96066.13;1776853;79;21264;-81
2021/04/28 03:31:06;;;;;;;4.78;3.25;;;;;;;6.01;45.06;96069.20;1779476;79;21088;-78
2021/04/28 03:33:32;;;;;;;3.87;3.08;;;;;;;6.05;44.46;96056.33;1712527;82;21139;-78
2021/04/28 03:35:58;;;;;;;5.42;2.87;;;;;;;6.10;44.58;96060.99;1779314;79;21150;-77
2021/04/28 03:38:24;;;;;;;4.33;2.92;;;;;;;6.04;44.06;96050.84;1783414;79;21672;-78
2021/04/28 03:40:50;;;;;;;3.75;3.08;;;;;;;6.04;44.06;96050.84;1776009;79;21105;-78
2021/04/28 03:43:16;;;;;;;4.72;3.00;;;;;;;6.07;45.26;96062.13;1779718;79;21133;-79
2021/04/28 03:45:42;;;;;;;4.10;3.12;;;;;;;6.05;45.20;96060.20;1779772;79;21068;-79
2021/04/28 03:48:08;;;;;;;4.53;3.17;;;;;;;6.05;44.39;96058.09;1777171;79;21125;-79
2021/04/28 03:50:34;;;;;;;4.33;3.10;;;;;;;6.08;45.37;96060.35;1780947;79;21126;-79
2021/04/28 03:53:00;;;;;;;4.15;2.98;;;;;;;6.04;45.55;96059.87;1778062;79;21138;-79
2021/04/28 03:55:26;;;;;;;3.45;3.12;;;;;;;6.01;44.91;96066.13;1777126;79;21202;-79
2021/04/28 03:57:53;;;;;;;3.65;2.85;;;;;;;6.07;44.88;96058.26;1776582;79;21127;-79
2021/04/28 04:00:19;;;;;;;3.60;3.08;;;;;;;6.14;45.09;96062.27;1776575;79;21328;-79
2021/04/28 04:02:45;;;;;;;4.67;3.40;;;;;;;6.15;45.18;96059.53;1773297;79;21090;-79
2021/04/28 04:05:12;;;;;;;4.08;3.25;;;;;;;6.18;44.65;96057.94;1784787;79;21139;-79
2021/04/28 04:07:38;;;;;;;2.60;2.40;;;;;;;6.24;45.60;96059.86;1777392;79;21115;-79
2021/04/28 04:10:06;;;;;;;5.28;3.77;;;;;;;6.25;45.64;96061.95;1780688;79;21353;-82
2021/04/28 04:12:32;;;;;;;4.28;3.37;;;;;;;6.21;46.30;96064.06;1779215;79;21117;-82
2021/04/28 04:16:01;;;;;;;5.37;2.98;;;;;;;6.21;45.88;96062.77;1777766;79;21532;-81
2021/04/28 04:18:27;;;;;;;3.98;2.80;;;;;;;6.24;45.87;96059.05;1719432;81;22249;-81
2021/04/28 04:20:53;;;;;;;3.70;3.20;;;;;;;6.33;45.56;96059.35;1698082;83;21421;-82
2021/04/28 04:23:19;;;;;;;4.40;3.45;;;;;;;6.36;46.10;96054.38;1759526;79;21098;-82
2021/04/28 04:25:45;;;;;;;3.65;3.02;;;;;;;6.37;45.33;96056.80;1779530;79;21134;-81
2021/04/28 04:28:11;;;;;;;5.55;2.95;;;;;;;6.44;44.54;96048.70;1784101;79;21133;-82
2021/04/28 04:30:37;;;;;;;5.72;2.95;;;;;;;6.44;44.54;96048.70;1776467;79;21091;-79
2021/04/28 04:33:04;;;;;;;4.35;3.10;;;;;;;6.55;45.36;96061.77;1784951;79;21338;-79
2021/04/28 04:35:30;;;;;;;4.08;2.85;;;;;;;6.55;45.54;96061.28;1781942;79;21251;-79
2021/04/28 04:37:56;;;;;;;5.45;2.60;;;;;;;6.55;44.39;96068.22;1777939;79;21260;-79
2021/04/28 04:40:22;;;;;;;5.40;2.83;;;;;;;6.57;45.27;96068.37;1780842;79;21095;-79
2021/04/28 04:42:48;;;;;;;4.55;3.17;;;;;;;6.58;45.39;96072.56;1778153;79;21086;-79
2021/04/28 04:45:14;;;;;;;3.70;3.00;;;;;;;6.61;44.85;96072.71;1782394;79;21253;-79
2021/04/28 04:47:40;;;;;;;3.87;3.00;;;;;;;6.63;43.70;96075.93;1778846;79;21114;-79
2021/04/28 04:50:07;;;;;;;4.12;2.90;;;;;;;6.74;44.13;96072.20;1779978;79;21123;-79
2021/04/28 04:52:33;;;;;;;2.90;2.60;;;;;;;6.84;43.35;96072.84;1776818;79;21153;-79
2021/04/28 04:54:59;;;;;;;3.42;2.83;;;;;;;6.92;44.35;96070.22;1780896;79;21076;-79
2021/04/28 04:57:27;;;;;;;4.92;3.58;;;;;;;6.97;44.03;96073.09;1776907;79;21354;-79
2021/04/28 04:59:53;;;;;;;4.85;3.37;;;;;;;7.01;43.17;96065.36;1779631;79;21107;-79
2021/04/28 05:02:19;;;;;;;3.15;2.70;;;;;;;7.09;43.09;96067.09;1776330;79;21369;-79
2021/04/28 05:04:45;;;;;;;3.60;2.67;;;;;;;7.17;42.77;96072.23;1697794;82;21245;-79
2021/04/28 05:07:11;;;;;;;4.87;2.55;;;;;;;7.25;42.23;96072.19;1700873;82;21131;-79
2021/04/28 05:09:37;;;;;;;4.50;3.50;;;;;;;7.30;42.94;96071.19;1774174;79;21141;-79
2021/04/28 05:12:05;;;;;;;5.03;4.03;;;;;;;7.34;43.29;96070.39;1771109;79;22059;-79
2021/04/28 05:14:31;;;;;;;3.98;3.37;;;;;;;7.40;42.60;96067.11;1707275;82;21120;-81
2021/04/28 05:16:57;;;;;;;3.58;3.00;;;;;;;7.49;42.23;96066.91;1773376;79;21115;-81
2021/04/28 05:19:23;;;;;;;4.22;3.27;;;;;;;7.59;43.63;96065.88;1761118;79;21369;-78
2021/04/28 05:21:49;;;;;;;12.50;9.23;;;;;;;7.65;42.76;96067.80;1727337;81;21124;-78
2021/04/28 05:24:15;;;;;;;12.03;7.50;;;;;;;7.73;42.72;96063.37;1770096;79;21107;-77
2021/04/28 05:26:41;;;;;;;20.17;14.83;;;;;;;7.88;41.70;96071.20;1755383;79;21229;-78
2021/04/28 05:29:08;;;;;;;15.88;11.33;;;;;;;8.00;42.06;96071.61;1767773;79;22279;-77
2021/04/28 05:31:34;;;;;;;25.20;18.07;;;;;;;8.08;42.24;96069.75;1766652;79;21126;-81
2021/04/28 05:34:00;;;;;;;45.28;31.80;;;;;;;8.20;42.45;96071.45;1757206;79;21302;-81
2021/04/28 05:36:26;;;;;;;41.20;28.80;;;;;;;8.29;42.53;96068.28;1762906;79;21115;-78
2021/04/28 05:38:55;;;;;;;19.55;14.03;;;;;;;8.36;42.24;96067.45;1769776;79;21095;-77
2021/04/28 05:41:21;;;;;;;16.37;14.80;;;;;;;8.46;42.21;96063.34;1730969;80;21130;-78
2021/04/28 05:43:47;;;;;;;7.20;6.05;;;;;;;8.58;42.26;96070.97;1762382;79;21305;-78
2021/04/28 05:46:13;;;;;;;4.78;3.77;;;;;;;8.71;42.09;96061.30;1770620;79;21110;-81
2021/04/28 05:48:40;;;;;;;3.92;3.35;;;;;;;8.85;41.94;96061.80;1756238;79;21141;-81
2021/04/28 05:51:06;;;;;;;5.08;2.72;;;;;;;8.98;42.51;96067.16;1751415;79;21258;-81
2021/04/28 05:53:32;;;;;;;4.33;2.77;;;;;;;9.10;43.81;96061.02;1685783;83;21132;-81
2021/04/28 05:56:04;;;;;;;6.25;2.90;;;;;;;9.18;44.61;96060.94;1773379;79;21219;-78
2021/04/28 05:58:30;;;;;;;7.87;5.72;;;;;;;9.27;45.02;96068.11;1758706;79;21721;-78
2021/04/28 06:01:02;;;;;;;11.08;6.60;;;;;;;9.31;44.02;96065.48;1706628;82;21169;-81
2021/04/28 06:03:28;;;;;;;14.85;7.67;;;;;;;9.37;44.72;96063.45;1730557;81;21100;-77
2021/04/28 06:05:55;;;;;;;12.80;8.00;;;;;;;9.46;43.58;96066.27;1766791;79;21087;-77
2021/04/28 06:08:21;;;;;;;14.60;8.83;;;;;;;9.55;43.94;96070.34;1708899;82;21242;-78
2021/04/28 06:10:47;;;;;;;10.45;7.40;;;;;;;9.61;43.23;96067.53;1765080;79;21671;-77
2021/04/28 06:13:13;;;;;;;13.30;8.78;;;;;;;9.68;44.08;96076.17;1759447;79;21095;-81
2021/04/28 06:15:40;;;;;;;14.87;7.95;;;;;;;9.75;43.89;96073.14;1795997;79;21123;-81
2021/04/28 06:18:06;;;;;;;15.18;9.63;;;;;;;9.78;44.09;96065.52;1767588;79;21094;-79
2021/04/28 06:20:33;;;;;;;13.97;10.10;;;;;;;9.96;43.82;96071.58;1756722;79;21071;-79
2021/04/28 06:23:01;;;;;;;12.98;9.25;;;;;;;10.08;43.04;96065.69;1771987;79;21126;-81
2021/04/28 06:25:27;;;;;;;15.35;9.80;;;;;;;10.18;42.84;96066.19;1756099;79;21106;-78
2021/04/28 06:27:53;;;;;;;12.60;8.73;;;;;;;10.29;43.48;96068.81;1752740;79;21404;-77
2021/04/28 06:30:19;;;;;;;15.98;9.98;;;;;;;10.41;42.52;96071.22;1761353;79;21056;-78
2021/04/28 06:32:46;;;;;;;14.93;9.85;;;;;;;10.53;42.54;96072.78;1769910;79;21075;-78
2021/04/28 06:35:13;;;;;;;14.28;10.00;;;;;;;10.61;41.42;96060.97;1710741;82;21152;-82
2021/04/28 06:37:38;;;;;;;16.02;12.58;;;;;;;10.71;41.95;96063.21;1761769;79;21244;-79
2021/04/28 06:40:06;;;;;;;19.70;13.65;;;;;;;10.61;41.79;96044.58;1768775;79;21229;-82
2021/04/28 06:42:33;;;;;;;21.48;13.13;;;;;;;10.82;41.92;96063.50;1772859;79;21126;-78
2021/04/28 06:44:59;;;;;;;21.60;14.83;;;;;;;10.91;42.13;96062.86;1782501;79;21274;-82
2021/04/28 06:47:25;;;;;;;19.57;15.48;;;;;;;11.02;41.92;96062.30;1754366;79;21118;-79
2021/04/28 06:49:54;;;;;;;25.37;17.20;;;;;;;11.07;42.80;96058.66;1728891;81;21307;-79
2021/04/28 06:52:23;;;;;;;28.20;19.82;;;;;;;11.15;41.91;96056.88;1757756;79;21086;-79
2021/04/28 06:54:49;;;;;;;30.45;19.50;;;;;;;11.21;41.94;96055.59;1757735;79;21110;-80
2021/04/28 06:57:16;;;;;;;27.55;18.37;;;;;;;11.28;42.28;96053.04;1767127;79;21121;-78
2021/04/28 06:59:42;;;;;;;29.90;20.05;;;;;;;11.27;41.81;96053.54;1770648;78;21134;-82
2021/04/28 07:02:08;;;;;;;29.32;19.77;;;;;;;11.33;42.32;96050.16;1747527;79;21952;-79
2021/04/28 07:04:34;;;;;;;30.00;18.98;;;;;;;11.42;43.16;96054.20;1754725;79;21146;-78
2021/04/28 07:07:00;;;;;;;28.70;17.67;;;;;;;11.48;42.42;96059.61;1762670;78;21114;-82
2021/04/28 07:09:26;;;;;;;30.15;20.00;;;;;;;11.49;42.03;96054.71;1760147;80;21843;-83
2021/04/28 07:11:52;;;;;;;28.62;19.77;;;;;;;11.55;42.34;96057.83;1767077;80;21052;-80
2021/04/28 07:14:18;;;;;;;26.85;18.70;;;;;;;11.62;42.62;96053.46;1769420;78;21111;-79
2021/04/28 07:16:44;;;;;;;23.22;16.62;;;;;;;11.71;42.99;96042.69;1754035;80;21237;-80
2021/04/28 07:19:11;;;;;;;24.77;16.30;;;;;;;11.80;42.23;96050.33;1762043;80;21244;-82
2021/04/28 07:21:37;;;;;;;25.65;15.98;;;;;;;11.84;42.17;96045.83;1767071;80;21138;-82
2021/04/28 07:24:04;;;;;;;20.75;13.80;;;;;;;11.93;42.90;96054.27;1769549;79;21102;-81
2021/04/28 07:26:32;;;;;;;23.67;14.47;;;;;;;11.98;42.26;96051.36;1766492;81;21221;-82
2021/04/28 07:28:59;;;;;;;22.27;14.60;;;;;;;12.05;42.14;96051.39;1760615;79;21340;-78
2021/04/28 07:31:26;;;;;;;20.80;13.98;;;;;;;12.09;41.83;96049.98;1768490;79;21297;-82
2021/04/28 07:33:52;;;;;;;20.92;13.50;;;;;;;12.13;41.21;96054.29;1762972;80;21123;-80
2021/04/28 07:36:18;;;;;;;18.15;12.15;;;;;;;12.09;40.85;96050.48;1763924;80;21286;-81
2021/04/28 07:38:44;;;;;;;14.47;10.45;;;;;;;12.13;41.64;96051.69;1751417;80;21380;-82
2021/04/28 07:41:10;;;;;;;16.57;10.40;;;;;;;12.24;41.78;96043.28;1746162;80;21087;-84
2021/04/28 07:43:36;;;;;;;12.07;8.43;;;;;;;12.35;41.47;96050.48;1738763;81;21122;-79
2021/04/28 07:46:02;;;;;;;13.30;9.10;;;;;;;12.44;40.57;96049.80;1721080;81;21134;-82
2021/04/28 07:48:29;;;;;;;13.95;9.45;;;;;;;12.52;40.71;96043.86;1742072;81;21290;-80
2021/04/28 07:50:55;;;;;;;13.10;9.40;;;;;;;12.70;41.11;96045.08;1733235;81;21146;-79
2021/04/28 07:53:21;;;;;;;9.45;7.20;;;;;;;12.83;40.47;96054.16;1738214;81;21317;-82
2021/04/28 07:55:47;;;;;;;11.20;7.87;;;;;;;12.95;39.97;96056.44;1745763;81;21363;-80
2021/04/28 07:58:15;;;;;;;6.10;5.00;;;;;;;13.04;39.50;96053.92;1744177;81;21114;-80
2021/04/28 08:00:41;;;;;;;6.97;4.70;;;;;;;13.04;37.10;96050.52;1735425;81;21099;-78
2021/04/28 08:03:07;;;;;;;6.50;4.30;;;;;;;13.10;38.35;96049.19;1738292;80;21225;-79
2021/04/28 08:05:33;;;;;;;6.65;5.08;;;;;;;13.21;37.80;96044.67;1761764;80;21098;-80
2021/04/28 08:07:59;;;;;;;8.23;6.30;;;;;;;13.33;37.37;96047.92;1751648;80;21118;-79
2021/04/28 08:10:25;;;;;;;6.22;4.60;;;;;;;13.40;37.95;96046.11;1748328;80;21424;-79
2021/04/28 08:12:51;;;;;;;9.45;6.92;;;;;;;13.54;37.21;96045.55;1761392;80;21530;-78
2021/04/28 08:15:17;;;;;;;9.10;5.47;;;;;;;13.56;37.84;96050.05;1753337;80;21126;-78
2021/04/28 08:17:44;;;;;;;6.50;5.55;;;;;;;13.61;36.98;96041.88;1772385;80;21237;-78
2021/04/28 08:20:11;;;;;;;9.33;6.22;;;;;;;13.67;37.38;96039.77;1751314;80;21107;-82
2021/04/28 08:22:37;;;;;;;8.43;5.65;;;;;;;13.66;37.39;96038.64;1758634;80;21165;-79
2021/04/28 08:25:06;;;;;;;6.03;3.95;;;;;;;13.72;37.26;96039.13;1734437;80;21110;-78
2021/04/28 08:27:32;;;;;;;10.00;6.40;;;;;;;13.78;36.31;96029.14;1750348;80;21151;-81
2021/04/28 08:29:58;;;;;;;7.35;5.10;;;;;;;13.75;37.50;96026.45;1757344;80;21123;-77
2021/04/28 08:32:25;;;;;;;8.58;5.30;;;;;;;13.85;37.08;96034.34;1742853;80;21098;-84
2021/04/28 08:34:51;;;;;;;9.43;5.75;;;;;;;13.88;36.34;96028.69;1765012;80;21221;-81
2021/04/28 08:37:17;;;;;;;8.23;5.10;;;;;;;13.85;36.46;96023.89;1758954;80;21126;-79
2021/04/28 08:39:43;;;;;;;5.58;3.62;;;;;;;13.84;36.55;96032.74;1737941;80;21095;-78
2021/04/28 08:42:11;;;;;;;8.20;5.47;;;;;;;13.89;35.54;96023.77;1716320;82;21346;-78
2021/04/28 08:44:38;;;;;;;8.00;5.17;;;;;;;13.86;36.59;96016.36;1742711;80;21124;-80
2021/04/28 08:47:04;;;;;;;6.53;5.00;;;;;;;13.89;36.46;96019.34;1750943;80;21118;-79
2021/04/28 08:49:33;;;;;;;6.80;5.20;;;;;;;13.90;37.00;96011.80;1753030;80;21094;-79
2021/04/28 08:51:59;;;;;;;8.30;5.00;;;;;;;13.98;37.23;96007.61;1749203;80;21106;-78
2021/04/28 08:54:25;;;;;;;6.72;5.40;;;;;;;14.14;36.49;96006.29;1737320;80;21091;-78
2021/04/28 08:56:54;;;;;;;7.22;5.15;;;;;;;14.15;36.56;96005.27;1756469;80;21063;-78
2021/04/28 08:59:21;;;;;;;7.40;5.03;;;;;;;14.20;36.16;96006.77;1720902;81;21126;-82
2021/04/28 09:01:48;;;;;;;6.97;5.85;;;;;;;14.26;35.84;96016.86;1749989;80;21162;-79
2021/04/28 09:04:16;;;;;;;8.28;5.95;;;;;;;14.04;36.62;96013.81;1747466;80;21071;-80
2021/04/28 09:06:42;;;;;;;5.78;5.15;;;;;;;14.09;37.98;96016.08;1747701;80;21114;-77
2021/04/28 09:09:14;;;;;;;4.62;3.35;;;;;;;14.24;38.33;96014.46;1757553;80;21114;-79
2021/04/28 09:11:45;;;;;;;6.58;4.08;;;;;;;14.38;35.51;96004.70;1752820;81;21101;-78
2021/04/28 09:14:24;;;;;;;3.50;2.77;;;;;;;14.45;35.48;96003.36;1753736;80;21248;-79
2021/04/28 09:17:07;;;;;;;5.08;3.75;;;;;;;14.56;34.61;95990.89;1753669;80;21593;-80
2021/04/28 09:22:19;;;;;;;5.37;3.30;;;;;;;14.82;34.04;95988.53;1835559;77;22975;-78
2021/04/28 09:24:55;;;;;;;5.08;4.30;;;;;;;14.84;33.90;95994.34;1794341;77;21079;-78
2021/04/28 09:27:29;;;;;;;6.20;4.60;;;;;;;14.81;33.19;95990.36;1818157;77;21084;-79
2021/04/28 09:30:06;;;;;;;5.33;4.20;;;;;;;14.81;34.05;95981.71;1835168;77;21094;-78
2021/04/28 09:32:36;;;;;;;4.17;3.62;;;;;;;14.89;34.07;95989.25;1813245;77;21094;-81
2021/04/28 09:35:23;;;;;;;5.62;4.22;;;;;;;14.97;34.22;95981.93;1799585;77;21073;-77
2021/04/28 09:37:57;;;;;;;7.15;5.90;;;;;;;14.96;33.86;95969.84;1813406;77;21119;-79
2021/04/28 09:40:49;;;;;;;4.67;3.83;;;;;;;15.01;35.02;95965.28;1800856;77;21216;-79
2021/04/28 09:43:15;;;;;;;5.23;3.77;;;;;;;15.11;33.76;95966.05;1813019;77;21303;-81
2021/04/28 09:45:51;;;;;;;6.25;3.62;;;;;;;15.10;32.84;95965.77;1822125;77;21624;-78
2021/04/28 09:48:24;;;;;;;4.80;3.00;;;;;;;15.06;32.87;95953.63;1826893;77;21147;-80
2021/04/28 09:50:52;;;;;;;5.40;3.58;;;;;;;15.12;32.04;95957.17;1838486;77;21091;-80
2021/04/28 09:53:24;;;;;;;6.87;5.60;;;;;;;15.15;32.57;95954.14;1764824;79;21297;-80
2021/04/28 09:55:50;;;;;;;6.45;5.08;;;;;;;15.16;33.01;95956.54;1775558;79;21352;-82
2021/04/28 09:58:17;;;;;;;5.62;4.92;;;;;;;15.15;34.15;95954.14;1750748;79;21497;-79
2021/04/28 10:01:00;;;;;;;5.97;3.75;;;;;;;15.28;33.60;95959.19;1742083;80;21117;-79
2021/04/28 10:03:44;;;;;;;5.60;3.25;;;;;;;15.38;33.12;95948.20;1732997;80;21102;-80
2021/04/28 10:06:10;;;;;;;4.42;3.22;;;;;;;15.53;33.40;95952.53;1784145;79;21062;-78
2021/04/28 10:08:38;;;;;;;4.78;2.80;;;;;;;15.58;31.44;95958.68;1750513;79;21110;-79
2021/04/28 10:11:04;;;;;;;4.53;2.98;;;;;;;15.54;32.04;95944.45;1759850;79;21089;-79
2021/04/28 10:13:31;;;;;;;4.97;2.72;;;;;;;15.44;30.82;95933.70;1769835;80;21116;-79
2021/04/28 10:15:57;;;;;;;3.83;2.87;;;;;;;15.46;30.14;95930.37;1761867;79;21364;-79
2021/04/28 10:18:23;;;;;;;6.20;3.92;;;;;;;15.49;30.77;95931.23;1761566;79;21109;-82
2021/04/28 10:20:50;;;;;;;6.85;4.62;;;;;;;15.49;32.61;95929.13;1765903;79;21117;-78
2021/04/28 10:23:19;;;;;;;5.10;4.25;;;;;;;15.54;33.15;95934.48;1751469;80;21125;-78
2021/04/28 10:25:49;;;;;;;5.45;4.12;;;;;;;15.56;33.51;95919.34;1758917;80;21404;-79
2021/04/28 10:28:15;;;;;;;7.45;5.62;;;;;;;15.52;32.75;95921.62;1725050;81;21079;-82
2021/04/28 10:30:46;;;;;;;7.15;4.65;;;;;;;15.47;33.19;95914.95;1724598;81;21305;-79
2021/04/28 10:33:19;;;;;;;7.17;5.65;;;;;;;15.44;33.43;95919.30;1715866;80;21131;-78
2021/04/28 10:35:45;;;;;;;8.08;5.22;;;;;;;15.43;34.30;95915.09;1746632;80;21133;-79
2021/04/28 10:38:11;;;;;;;8.05;5.60;;;;;;;15.48;34.83;95911.31;1747265;80;21138;-79
2021/04/28 10:40:38;;;;;;;9.50;6.72;;;;;;;15.47;34.35;95903.69;1751622;80;21385;-82
2021/04/28 10:43:10;;;;;;;5.58;4.50;;;;;;;15.53;35.76;95900.16;1735649;81;21113;-82
2021/04/28 10:45:37;;;;;;;8.08;5.15;;;;;;;15.55;33.01;95896.29;1736970;81;21224;-82
2021/04/28 10:48:07;;;;;;;4.78;4.15;;;;;;;15.59;33.91;95898.77;1748867;80;21130;-81
2021/04/28 10:50:48;;;;;;;4.60;3.33;;;;;;;15.78;32.20;95901.30;1747763;80;21137;-81
2021/04/28 10:53:27;;;;;;;4.97;3.27;;;;;;;15.95;32.95;95906.71;1751709;81;21347;-82
2021/04/28 10:56:01;;;;;;;4.97;2.92;;;;;;;16.08;31.54;95899.40;1736398;80;21334;-81
2021/04/28 10:58:35;;;;;;;4.90;3.00;;;;;;;16.16;31.72;95893.04;1748073;80;21129;-81
2021/04/28 11:01:07;;;;;;;3.83;2.47;;;;;;;16.20;31.67;95889.72;1761570;79;21250;-81
2021/04/28 11:03:49;;;;;;;3.17;2.77;;;;;;;16.27;31.09;95888.80;1768951;79;21298;-81
2021/04/28 11:06:23;;;;;;;;;;;;;;;16.32;30.51;95893.66;1775108;79;21639;-80
2021/04/28 11:09:00;;;;;;;4.75;2.45;;;;;;;16.40;31.77;95889.88;1742761;80;20112;-79
2021/04/28 11:11:44;;;;;;;3.75;2.65;;;;;;;16.51;31.10;95893.00;1767528;79;21224;-79
2021/04/28 11:14:27;;;;;;;6.65;5.08;;;;;;;16.53;29.79;95888.33;1753450;79;21096;-80
2021/04/28 11:16:55;;;;;;;5.08;3.42;;;;;;;16.46;30.66;95896.33;1767396;79;21302;-79
2021/04/28 11:19:40;;;;;;;6.12;4.42;;;;;;;16.43;30.82;95883.68;1770385;79;21092;-79
2021/04/28 11:22:28;;;;;;;6.72;5.35;;;;;;;16.46;31.87;95875.34;1770932;79;21299;-79
2021/04/28 11:25:08;;;;;;;5.75;4.10;;;;;;;16.56;32.00;95880.50;1818310;77;21255;-80
2021/04/28 11:27:56;;;;;;;6.10;4.55;;;;;;;16.63;32.18;95878.05;1805721;77;21082;-79
2021/04/28 11:30:28;;;;;;;7.05;4.87;;;;;;;16.59;31.56;95869.03;1794210;77;21432;-79
2021/04/28 11:33:14;;;;;;;6.42;4.97;;;;;;;16.46;31.70;95862.23;1806437;77;21824;-78
2021/04/28 11:35:56;;;;;;;9.28;5.87;;;;;;;16.45;32.18;95858.02;1815208;77;21127;-78
2021/04/28 11:38:27;;;;;;;6.00;3.92;;;;;;;16.48;31.25;95847.58;1816682;77;21214;-79
2021/04/28 11:41:02;;;;;;;6.70;4.83;;;;;;;16.53;32.58;95859.47;1791403;77;21159;-78
2021/04/28 11:43:31;;;;;;;6.97;5.03;;;;;;;16.67;31.75;95849.04;1806283;77;21084;-78